createdAt,value
2022-07-30T00:01:17.568Z,2.85
2022-07-30T00:03:44.328Z,2.58
2022-07-30T00:06:11.038Z,3.05
2022-07-30T00:08:37.627Z,2.95
2022-07-30T00:11:04.331Z,2.80
2022-07-30T00:13:31.144Z,2.72
2022-07-30T00:15:57.905Z,2.90
2022-07-30T00:18:24.663Z,3.10
2022-07-30T00:20:51.898Z,3.05
2022-07-30T00:23:18.559Z,2.90
2022-07-30T00:25:45.277Z,3.10
2022-07-30T00:28:11.901Z,2.78
2022-07-30T00:30:40.793Z,2.92
2022-07-30T00:33:08.367Z,2.72
2022-07-30T00:35:35.741Z,2.83
2022-07-30T00:38:02.563Z,3.20
2022-07-30T00:40:29.298Z,2.72
2022-07-30T00:42:56.244Z,3.30
2022-07-30T00:45:22.833Z,3.15
2022-07-30T00:47:49.572Z,3.03
2022-07-30T00:50:16.824Z,3.03
2022-07-30T00:52:43.944Z,2.83
2022-07-30T00:55:13.419Z,3.15
2022-07-30T00:57:41.095Z,2.80
2022-07-30T01:00:10.473Z,3.25
2022-07-30T01:02:37.214Z,2.80
2022-07-30T01:05:04.432Z,2.65
2022-07-30T01:07:31.034Z,2.85
2022-07-30T01:09:57.766Z,3.20
2022-07-30T01:12:26.805Z,3.08
2022-07-30T01:14:55.710Z,2.83
2022-07-30T01:17:22.430Z,3.25
2022-07-30T01:19:52.649Z,3.58
2022-07-30T01:22:22.314Z,3.10
2022-07-30T01:25:01.438Z,3.20
2022-07-30T01:27:34.578Z,3.33
2022-07-30T01:30:04.776Z,3.28
2022-07-30T01:32:34.645Z,2.58
2022-07-30T01:35:02.934Z,3.08
2022-07-30T01:37:32.116Z,2.55
2022-07-30T01:39:59.455Z,3.03
2022-07-30T01:42:28.859Z,2.90
2022-07-30T01:44:57.291Z,3.30
2022-07-30T01:47:25.464Z,2.78
2022-07-30T01:49:54.464Z,3.10
2022-07-30T01:52:23.562Z,2.67
2022-07-30T01:54:52.448Z,3.30
2022-07-30T01:57:20.868Z,3.60
2022-07-30T01:59:50.322Z,3.25
2022-07-30T02:02:18.021Z,3.08
2022-07-30T02:04:45.360Z,2.55
2022-07-30T02:07:17.972Z,3.20
2022-07-30T02:10:07.751Z,2.92
2022-07-30T02:12:40.569Z,2.90
2022-07-30T02:15:35.122Z,2.92
2022-07-30T02:18:17.027Z,2.65
2022-07-30T02:20:49.410Z,3.20
2022-07-30T02:23:18.456Z,2.88
2022-07-30T02:25:49.758Z,2.33
2022-07-30T02:28:18.572Z,3.17
2022-07-30T02:30:51.027Z,3.08
2022-07-30T02:33:23.737Z,2.75
2022-07-30T02:38:21.250Z,2.97
2022-07-30T02:40:49.759Z,2.75
2022-07-30T02:43:17.600Z,2.90
2022-07-30T02:45:47.114Z,2.80
2022-07-30T02:48:31.286Z,3.13
2022-07-30T02:51:03.846Z,3.05
2022-07-30T02:53:31.209Z,3.08
2022-07-30T02:56:00.500Z,3.35
2022-07-30T02:58:28.608Z,3.17
2022-07-30T03:00:57.229Z,3.38
2022-07-30T03:03:29.198Z,2.88
2022-07-30T03:05:57.105Z,3.78
2022-07-30T03:08:26.287Z,4.60
2022-07-30T03:10:55.305Z,4.07
2022-07-30T03:13:24.307Z,3.05
2022-07-30T03:15:52.911Z,3.50
2022-07-30T03:18:21.391Z,3.22
2022-07-30T03:20:53.711Z,3.08
2022-07-30T03:23:21.393Z,2.95
2022-07-30T03:25:54.490Z,3.15
2022-07-30T03:28:23.587Z,3.78
2022-07-30T03:30:51.962Z,3.80
2022-07-30T03:33:19.923Z,3.95
2022-07-30T03:35:48.929Z,3.90
2022-07-30T03:38:16.898Z,4.07
2022-07-30T03:40:45.265Z,4.20
2022-07-30T03:43:32.452Z,4.35
2022-07-30T03:46:02.914Z,4.43
2022-07-30T03:48:30.593Z,4.90
2022-07-30T03:50:58.677Z,4.43
2022-07-30T03:53:25.948Z,4.93
2022-07-30T03:55:53.504Z,4.93
2022-07-30T03:58:20.489Z,4.32
2022-07-30T04:00:49.697Z,3.45
2022-07-30T04:03:26.544Z,3.85
2022-07-30T04:05:53.846Z,4.50
2022-07-30T04:08:20.866Z,4.15
2022-07-30T04:10:48.976Z,4.65
2022-07-30T04:13:15.996Z,4.47
2022-07-30T04:16:05.575Z,4.10
2022-07-30T04:18:43.064Z,3.75
2022-07-30T04:21:16.983Z,4.32
2022-07-30T04:24:02.837Z,4.40
2022-07-30T04:26:33.034Z,4.60
2022-07-30T04:29:00.849Z,3.83
2022-07-30T04:31:29.188Z,4.82
2022-07-30T04:33:55.920Z,5.15
2022-07-30T04:36:30.701Z,5.22
2022-07-30T04:38:58.637Z,4.68
2022-07-30T04:41:25.370Z,5.50
2022-07-30T04:43:52.752Z,5.60
2022-07-30T04:46:19.720Z,4.35
2022-07-30T04:48:48.210Z,4.03
2022-07-30T04:51:32.026Z,4.53
2022-07-30T04:53:59.831Z,4.72
2022-07-30T04:56:28.419Z,4.45
2022-07-30T04:58:56.554Z,4.38
2022-07-30T05:01:34.020Z,5.10
2022-07-30T05:04:09.121Z,4.95
2022-07-30T05:09:04.435Z,4.97
2022-07-30T05:11:31.157Z,5.25
2022-07-30T05:13:57.812Z,6.03
2022-07-30T05:16:25.148Z,6.60
2022-07-30T05:18:51.955Z,6.35
2022-07-30T05:21:18.622Z,6.03
2022-07-30T05:23:50.062Z,6.75
2022-07-30T05:26:21.319Z,5.80
2022-07-30T05:28:53.596Z,6.07
2022-07-30T05:31:22.024Z,6.25
2022-07-30T05:33:49.079Z,6.80
2022-07-30T05:36:15.832Z,6.20
2022-07-30T05:38:42.468Z,6.30
2022-07-30T05:41:18.182Z,6.82
2022-07-30T05:43:56.961Z,6.07
2022-07-30T05:46:24.288Z,7.07
2022-07-30T05:48:51.002Z,7.32
2022-07-30T05:51:19.458Z,7.30
2022-07-30T05:53:46.032Z,6.90
2022-07-30T05:56:12.811Z,7.50
2022-07-30T05:58:39.483Z,7.07
2022-07-30T06:01:06.084Z,8.02
2022-07-30T06:03:32.656Z,7.43
2022-07-30T06:05:59.265Z,7.68
2022-07-30T06:08:25.860Z,7.93
2022-07-30T06:10:53.492Z,7.10
2022-07-30T06:13:20.060Z,7.97
2022-07-30T06:15:46.815Z,7.03
2022-07-30T06:18:13.443Z,7.63
2022-07-30T06:20:42.130Z,6.70
2022-07-30T06:23:08.767Z,7.25
2022-07-30T06:25:35.480Z,7.40
2022-07-30T06:28:21.236Z,7.55
2022-07-30T06:30:52.692Z,7.38
2022-07-30T06:33:19.293Z,7.03
2022-07-30T06:35:45.886Z,7.05
2022-07-30T06:38:12.555Z,7.63
2022-07-30T06:40:39.682Z,7.47
2022-07-30T06:43:06.438Z,6.93
2022-07-30T06:45:33.233Z,6.97
2022-07-30T06:48:00.121Z,6.75
2022-07-30T06:50:27.156Z,7.40
2022-07-30T06:52:53.858Z,6.93
2022-07-30T06:55:20.464Z,7.38
2022-07-30T06:57:47.177Z,7.40
2022-07-30T07:00:14.072Z,7.38
2022-07-30T07:02:42.701Z,7.03
2022-07-30T07:05:10.180Z,6.50
2022-07-30T07:07:42.968Z,7.15
2022-07-30T07:10:13.150Z,6.63
2022-07-30T07:12:39.815Z,7.30
2022-07-30T07:15:06.973Z,6.95
2022-07-30T07:17:33.669Z,6.97
2022-07-30T07:20:02.557Z,6.00
2022-07-30T07:22:29.732Z,6.22
2022-07-30T07:24:56.521Z,6.32
2022-07-30T07:27:23.571Z,6.25
2022-07-30T07:30:05.004Z,6.10
2022-07-30T07:32:33.172Z,6.18
2022-07-30T07:34:59.810Z,5.70
2022-07-30T07:37:26.429Z,5.47
2022-07-30T07:39:53.091Z,5.25
2022-07-30T07:42:19.715Z,5.53
2022-07-30T07:44:46.282Z,5.85
2022-07-30T07:47:12.944Z,5.85
2022-07-30T07:49:39.491Z,5.70
2022-07-30T07:52:06.374Z,5.72
2022-07-30T07:54:33.420Z,5.65
2022-07-30T07:57:03.142Z,7.25
2022-07-30T07:59:36.370Z,5.63
2022-07-30T08:02:08.047Z,5.97
2022-07-30T08:04:35.416Z,5.35
2022-07-30T08:07:02.520Z,4.53
2022-07-30T08:09:42.009Z,5.20
2022-07-30T08:12:12.838Z,5.75
2022-07-30T08:14:39.702Z,5.90
2022-07-30T08:17:06.714Z,6.25
2022-07-30T08:19:34.075Z,6.05
2022-07-30T08:22:00.730Z,5.68
2022-07-30T08:24:27.325Z,5.25
2022-07-30T08:26:54.059Z,4.90
2022-07-30T08:29:20.858Z,5.35
2022-07-30T08:31:47.622Z,5.50
2022-07-30T08:34:14.526Z,5.82
2022-07-30T08:36:42.086Z,5.15
2022-07-30T08:39:08.839Z,4.25
2022-07-30T08:41:37.449Z,4.20
2022-07-30T08:44:07.887Z,5.20
2022-07-30T08:46:47.154Z,4.80
2022-07-30T08:49:15.146Z,4.18
2022-07-30T08:51:42.864Z,4.18
2022-07-30T08:54:10.555Z,4.13
2022-07-30T08:56:37.571Z,4.85
2022-07-30T08:59:04.581Z,4.82
2022-07-30T09:01:31.175Z,4.72
2022-07-30T09:03:59.881Z,5.45
2022-07-30T09:06:27.129Z,4.30
2022-07-30T09:08:54.688Z,3.95
2022-07-30T09:11:21.707Z,4.32
2022-07-30T09:13:48.587Z,4.05
2022-07-30T09:16:24.008Z,4.28
2022-07-30T09:18:53.453Z,4.10
2022-07-30T09:21:29.222Z,4.03
2022-07-30T09:24:02.183Z,3.50
2022-07-30T09:26:30.747Z,4.80
2022-07-30T09:29:17.064Z,3.83
2022-07-30T09:32:06.017Z,3.95
2022-07-30T09:34:40.122Z,3.20
2022-07-30T09:37:09.748Z,3.38
2022-07-30T09:39:40.867Z,3.22
2022-07-30T09:42:19.747Z,3.83
2022-07-30T09:44:47.093Z,3.60
2022-07-30T09:47:34.517Z,3.58
2022-07-30T09:50:05.878Z,2.90
2022-07-30T09:52:34.576Z,3.28
2022-07-30T09:55:01.374Z,2.85
2022-07-30T09:57:30.609Z,2.97
2022-07-30T10:00:15.565Z,2.72
2022-07-30T10:02:42.352Z,2.88
2022-07-30T10:05:15.018Z,2.45
2022-07-30T10:07:59.584Z,2.35
2022-07-30T10:10:29.357Z,2.45
2022-07-30T10:13:01.164Z,2.63
2022-07-30T10:15:35.770Z,2.60
2022-07-30T10:18:05.989Z,2.28
2022-07-30T10:20:34.938Z,3.15
2022-07-30T10:23:08.079Z,2.30
2022-07-30T10:25:36.850Z,2.80
2022-07-30T10:28:17.742Z,2.50
2022-07-30T10:30:45.474Z,2.50
2022-07-30T10:33:34.179Z,2.03
2022-07-30T10:35:59.707Z,3.95
2022-07-30T10:38:39.264Z,2.10
2022-07-30T10:41:43.305Z,2.33
2022-07-30T10:44:29.407Z,2.63
2022-07-30T10:47:09.195Z,2.53
2022-07-30T10:49:41.017Z,2.00
2022-07-30T10:52:09.952Z,2.67
2022-07-30T10:54:39.876Z,2.00
2022-07-30T10:57:09.625Z,2.33
2022-07-30T11:00:03.721Z,1.85
2022-07-30T11:02:35.430Z,1.77
2022-07-30T11:05:44.977Z,1.92
2022-07-30T11:08:36.122Z,1.95
2022-07-30T11:11:16.274Z,2.10
2022-07-30T11:13:53.474Z,2.10
2022-07-30T11:16:23.870Z,1.85
2022-07-30T11:19:56.033Z,2.60
2022-07-30T11:22:31.688Z,2.00
2022-07-30T11:24:59.895Z,1.92
2022-07-30T11:27:36.428Z,2.00
2022-07-30T11:30:05.737Z,2.30
2022-07-30T11:32:34.465Z,2.28
2022-07-30T11:35:35.186Z,2.40
2022-07-30T11:38:09.577Z,2.50
2022-07-30T11:40:44.977Z,2.42
2022-07-30T11:43:36.038Z,2.20
2022-07-30T11:46:07.630Z,2.03
2022-07-30T11:48:39.591Z,2.05
2022-07-30T11:51:06.661Z,2.20
2022-07-30T11:53:33.328Z,1.90
2022-07-30T11:56:02.972Z,2.08
2022-07-30T11:58:29.541Z,2.15
2022-07-30T12:00:58.419Z,2.20
2022-07-30T12:03:29.810Z,1.60
2022-07-30T12:05:56.678Z,1.80
2022-07-30T12:08:33.356Z,2.00
2022-07-30T12:11:03.345Z,1.58
2022-07-30T12:13:44.395Z,2.05
2022-07-30T12:16:16.729Z,1.88
2022-07-30T12:18:44.524Z,2.10
2022-07-30T12:21:12.806Z,1.90
2022-07-30T12:23:43.370Z,1.90
2022-07-30T12:26:27.537Z,1.60
2022-07-30T12:28:55.287Z,1.50
2022-07-30T12:31:23.933Z,1.35
2022-07-30T12:33:50.630Z,1.30
2022-07-30T12:36:34.747Z,1.58
2022-07-30T12:39:03.578Z,1.70
2022-07-30T12:41:42.764Z,1.38
2022-07-30T12:44:10.082Z,1.55
2022-07-30T12:46:41.371Z,1.52
2022-07-30T12:49:22.058Z,1.67
2022-07-30T12:52:00.014Z,1.30
2022-07-30T12:54:27.772Z,1.33
2022-07-30T12:57:00.798Z,1.50
2022-07-30T12:59:28.750Z,1.33
2022-07-30T13:01:57.502Z,1.65
2022-07-30T13:04:24.266Z,1.42
2022-07-30T13:07:08.624Z,1.60
2022-07-30T13:09:35.866Z,1.58
2022-07-30T13:12:03.116Z,1.25
2022-07-30T13:14:30.524Z,1.30
2022-07-30T13:16:58.364Z,1.27
2022-07-30T13:19:26.833Z,1.60
2022-07-30T13:21:53.504Z,1.27
2022-07-30T13:24:21.212Z,1.30
2022-07-30T13:26:47.890Z,1.60
2022-07-30T13:29:18.121Z,1.20
2022-07-30T13:31:44.875Z,1.40
2022-07-30T13:34:12.682Z,1.30
2022-07-30T13:36:44.206Z,1.27
2022-07-30T13:39:16.796Z,1.20
2022-07-30T13:41:43.612Z,1.23
2022-07-30T13:44:10.863Z,0.90
2022-07-30T13:46:40.544Z,1.30
2022-07-30T13:49:07.935Z,1.23
2022-07-30T13:51:34.871Z,1.20
2022-07-30T13:54:01.482Z,1.60
2022-07-30T13:56:28.107Z,1.20
2022-07-30T13:58:54.818Z,1.27
2022-07-30T14:01:21.431Z,1.52
2022-07-30T14:03:50.516Z,1.30
2022-07-30T14:06:18.491Z,1.10
2022-07-30T14:08:45.289Z,1.00
2022-07-30T14:11:11.931Z,1.30
2022-07-30T14:13:38.839Z,1.08
2022-07-30T14:16:22.629Z,1.30
2022-07-30T14:18:53.145Z,1.20
2022-07-30T14:21:19.821Z,1.35
2022-07-30T14:23:46.513Z,1.05
2022-07-30T14:26:14.079Z,0.90
2022-07-30T14:28:40.775Z,0.88
2022-07-30T14:31:07.444Z,1.02
2022-07-30T14:33:34.017Z,0.70
2022-07-30T14:36:00.642Z,1.02
2022-07-30T14:38:27.290Z,1.02
2022-07-30T14:40:53.847Z,0.98
2022-07-30T14:43:20.457Z,1.00
2022-07-30T14:45:50.647Z,0.98
2022-07-30T14:48:17.638Z,0.93
2022-07-30T14:51:11.769Z,1.00
2022-07-30T14:53:31.272Z,0.80
2022-07-30T14:55:57.832Z,1.00
2022-07-30T14:58:24.585Z,0.93
2022-07-30T15:00:51.691Z,0.90
2022-07-30T15:03:18.367Z,0.90
2022-07-30T15:05:51.806Z,1.08
2022-07-30T15:08:19.022Z,0.98
2022-07-30T15:10:45.611Z,1.25
2022-07-30T15:13:12.847Z,1.05
2022-07-30T15:15:41.207Z,0.88
2022-07-30T15:18:10.883Z,0.95
2022-07-30T15:20:37.743Z,0.90
2022-07-30T15:23:04.526Z,0.98
2022-07-30T15:25:31.470Z,0.80
2022-07-30T15:27:58.165Z,1.10
2022-07-30T15:30:24.889Z,1.00
2022-07-30T15:32:51.819Z,1.00
2022-07-30T15:35:18.402Z,1.08
2022-07-30T15:37:44.997Z,1.35
2022-07-30T15:40:11.692Z,0.90
2022-07-30T15:42:38.281Z,0.90
2022-07-30T15:45:21.392Z,1.35
2022-07-30T15:47:47.986Z,1.40
2022-07-30T15:50:15.529Z,0.90
2022-07-30T15:52:42.183Z,1.20
2022-07-30T15:55:09.514Z,1.20
2022-07-30T15:57:36.360Z,1.00
2022-07-30T16:00:04.516Z,0.93
2022-07-30T16:02:31.070Z,0.98
2022-07-30T16:04:57.768Z,1.00
2022-07-30T16:07:24.467Z,1.10
2022-07-30T16:09:51.135Z,1.10
2022-07-30T16:12:17.725Z,1.20
2022-07-30T16:14:44.329Z,0.80
2022-07-30T16:17:14.220Z,1.00
2022-07-30T16:19:44.831Z,1.00
2022-07-30T16:22:21.550Z,1.23
2022-07-30T16:24:50.596Z,0.98
2022-07-30T16:27:17.338Z,1.10
2022-07-30T16:29:43.928Z,0.90
2022-07-30T16:32:10.683Z,1.13
2022-07-30T16:34:37.257Z,0.80
2022-07-30T16:37:04.419Z,0.77
2022-07-30T16:39:31.234Z,0.90
2022-07-30T16:41:57.974Z,0.63
2022-07-30T16:44:26.953Z,1.02
2022-07-30T16:46:53.591Z,1.00
2022-07-30T16:49:20.273Z,0.80
2022-07-30T16:51:46.973Z,0.95
2022-07-30T16:54:13.639Z,0.80
2022-07-30T16:56:40.256Z,0.90
2022-07-30T16:59:10.583Z,1.00
2022-07-30T17:01:40.338Z,0.90
2022-07-30T17:04:06.928Z,1.15
2022-07-30T17:06:33.652Z,0.90
2022-07-30T17:09:00.229Z,0.90
2022-07-30T17:11:47.237Z,0.80
2022-07-30T17:14:13.634Z,1.00
2022-07-30T17:16:40.327Z,0.65
2022-07-30T17:19:09.071Z,0.88
2022-07-30T17:21:36.252Z,0.90
2022-07-30T17:24:02.918Z,1.00
2022-07-30T17:26:29.458Z,1.02
2022-07-30T17:28:55.987Z,0.70
2022-07-30T17:31:22.609Z,1.38
2022-07-30T17:33:49.156Z,1.00
2022-07-30T17:36:15.775Z,0.80
2022-07-30T17:38:42.349Z,0.90
2022-07-30T17:41:13.310Z,0.75
2022-07-30T17:43:40.285Z,0.90
2022-07-30T17:46:06.961Z,0.90
2022-07-30T17:48:33.539Z,0.90
2022-07-30T17:51:00.135Z,0.90
2022-07-30T17:53:28.570Z,0.70
2022-07-30T17:55:57.659Z,0.82
2022-07-30T17:58:25.128Z,0.80
2022-07-30T18:00:52.020Z,1.00
2022-07-30T18:03:18.669Z,0.80
2022-07-30T18:05:45.290Z,0.98
2022-07-30T18:08:11.967Z,0.80
2022-07-30T18:10:38.718Z,0.80
2022-07-30T18:13:26.044Z,1.00
2022-07-30T18:15:52.944Z,0.90
2022-07-30T18:18:19.621Z,0.90
2022-07-30T18:20:48.332Z,0.90
2022-07-30T18:23:19.933Z,0.90
2022-07-30T18:25:51.596Z,1.02
2022-07-30T18:28:19.748Z,0.80
2022-07-30T18:30:47.678Z,1.00
2022-07-30T18:33:15.320Z,0.80
2022-07-30T18:35:43.284Z,0.93
2022-07-30T18:38:10.601Z,0.75
2022-07-30T18:40:37.256Z,0.90
2022-07-30T18:43:04.098Z,0.68
2022-07-30T18:45:34.068Z,0.80
2022-07-30T18:50:30.242Z,0.75
2022-07-30T18:52:56.870Z,0.82
2022-07-30T18:55:23.504Z,0.70
2022-07-30T18:57:52.407Z,0.70
2022-07-30T19:00:31.154Z,0.77
2022-07-30T19:05:28.921Z,0.50
2022-07-30T19:07:58.548Z,0.55
2022-07-30T19:10:26.502Z,1.00
2022-07-30T19:12:54.418Z,0.80
2022-07-30T19:15:22.163Z,0.70
2022-07-30T19:17:50.107Z,0.77
2022-07-30T19:20:17.012Z,0.70
2022-07-30T19:22:43.849Z,0.55
2022-07-30T19:25:11.031Z,0.90
2022-07-30T19:27:37.630Z,0.80
2022-07-30T19:30:05.063Z,0.63
2022-07-30T19:32:31.630Z,0.60
2022-07-30T19:34:58.411Z,0.70
2022-07-30T19:37:25.039Z,0.70
2022-07-30T19:39:58.878Z,0.68
2022-07-30T19:42:33.859Z,0.77
2022-07-30T19:45:01.294Z,0.70
2022-07-30T19:47:39.394Z,0.68
2022-07-30T19:50:07.560Z,0.73
2022-07-30T19:52:35.817Z,0.82
2022-07-30T19:55:04.075Z,0.90
2022-07-30T19:57:53.365Z,0.70
2022-07-30T20:00:25.657Z,0.80
2022-07-30T20:02:53.249Z,0.73
2022-07-30T20:05:19.998Z,0.75
2022-07-30T20:07:47.224Z,0.70
2022-07-30T20:10:16.453Z,0.80
2022-07-30T20:15:30.526Z,0.80
2022-07-30T20:17:58.478Z,0.80
2022-07-30T20:20:26.504Z,0.90
2022-07-30T20:22:53.366Z,0.80
2022-07-30T20:25:20.094Z,1.17
2022-07-30T20:27:48.516Z,0.98
2022-07-30T20:30:15.796Z,1.00
2022-07-30T20:32:51.730Z,0.90
2022-07-30T20:35:19.969Z,1.05
2022-07-30T20:37:55.417Z,0.98
2022-07-30T20:40:24.632Z,0.90
2022-07-30T20:42:54.260Z,1.10
2022-07-30T20:45:24.234Z,0.95
2022-07-30T20:47:55.403Z,1.17
2022-07-30T20:50:30.938Z,1.27
2022-07-30T20:52:58.421Z,0.80
2022-07-30T20:55:25.062Z,1.00
2022-07-30T20:58:02.847Z,0.90
2022-07-30T21:00:38.308Z,1.20
2022-07-30T21:03:05.588Z,0.80
2022-07-30T21:05:32.315Z,0.85
2022-07-30T21:07:58.937Z,0.80
2022-07-30T21:10:25.583Z,1.20
2022-07-30T21:12:57.150Z,1.20
2022-07-30T21:15:32.870Z,0.90
2022-07-30T21:17:59.732Z,1.05
2022-07-30T21:20:29.506Z,0.95
2022-07-30T21:23:02.494Z,0.95
2022-07-30T21:25:32.820Z,0.98
2022-07-30T21:28:09.037Z,0.98
2022-07-30T21:30:45.198Z,0.95
2022-07-30T21:33:12.027Z,1.10
2022-07-30T21:35:39.099Z,1.00
2022-07-30T21:38:07.831Z,1.10
2022-07-30T21:40:36.055Z,1.20
2022-07-30T21:43:03.806Z,1.27
2022-07-30T21:45:37.807Z,0.90
2022-07-30T21:48:07.286Z,1.35
2022-07-30T21:50:33.967Z,1.38
2022-07-30T21:53:01.159Z,0.90
2022-07-30T21:55:27.786Z,1.38
2022-07-30T21:58:00.181Z,1.02
2022-07-30T22:00:48.670Z,1.40
2022-07-30T22:04:03.732Z,0.80
2022-07-30T22:06:04.488Z,1.23
2022-07-30T22:08:31.112Z,1.00
2022-07-30T22:10:59.462Z,1.25
2022-07-30T22:13:26.432Z,1.10
2022-07-30T22:15:56.554Z,1.27
2022-07-30T22:18:24.526Z,1.30
2022-07-30T22:20:53.012Z,1.60
2022-07-30T22:23:20.441Z,1.20
2022-07-30T22:25:47.460Z,0.80
2022-07-30T22:28:16.653Z,1.15
2022-07-30T22:30:43.700Z,1.55
2022-07-30T22:33:13.770Z,1.00
2022-07-30T22:35:46.523Z,1.23
2022-07-30T22:38:14.186Z,1.02
2022-07-30T22:40:42.718Z,1.25
2022-07-30T22:43:12.777Z,1.17
2022-07-30T22:45:49.236Z,1.42
2022-07-30T22:48:17.125Z,1.30
2022-07-30T22:50:43.825Z,1.50
2022-07-30T22:53:23.678Z,1.00
2022-07-30T22:55:59.047Z,0.98
2022-07-30T22:58:26.701Z,1.45
2022-07-30T23:00:53.850Z,1.40
2022-07-30T23:03:21.207Z,1.25
2022-07-30T23:05:56.344Z,1.40
2022-07-30T23:08:29.389Z,1.10
2022-07-30T23:10:58.139Z,1.33
2022-07-30T23:12:15.970Z,0.88
2022-07-30T23:13:24.860Z,1.25
2022-07-30T23:15:51.527Z,1.25
2022-07-30T23:18:18.137Z,1.20
2022-07-30T23:20:44.848Z,1.42
2022-07-30T23:23:11.606Z,1.20
2022-07-30T23:25:39.502Z,1.10
2022-07-30T23:28:07.483Z,1.20
2022-07-30T23:30:34.462Z,1.40
2022-07-30T23:33:01.359Z,1.13
2022-07-30T23:35:27.948Z,1.65
2022-07-30T23:37:54.513Z,1.40
2022-07-30T23:40:21.170Z,1.42
2022-07-30T23:42:50.110Z,1.20
2022-07-30T23:45:17.607Z,1.15
2022-07-30T23:48:00.593Z,1.25
2022-07-30T23:50:33.940Z,1.40
2022-07-30T23:53:01.685Z,1.48
2022-07-30T23:55:29.091Z,1.40
2022-07-30T23:57:56.165Z,1.30
